createdAt,value
2018-01-11T00:01:06.961Z,22.33
2018-01-11T00:03:35.361Z,22.30
2018-01-11T00:06:03.671Z,22.37
2018-01-11T00:08:31.999Z,22.87
2018-01-11T00:11:00.329Z,22.40
2018-01-11T00:13:29.389Z,23.03
2018-01-11T00:15:58.487Z,25.13
2018-01-11T00:18:27.827Z,23.27
2018-01-11T00:20:56.140Z,23.53
2018-01-11T00:23:24.488Z,23.10
2018-01-11T00:25:52.819Z,23.03
2018-01-11T00:28:21.129Z,23.47
2018-01-11T00:30:50.195Z,25.00
2018-01-11T00:33:18.529Z,25.27
2018-01-11T00:35:46.877Z,26.77
2018-01-11T00:38:15.190Z,24.23
2018-01-11T00:40:43.521Z,23.43
2018-01-11T00:43:12.563Z,28.30
2018-01-11T00:45:41.637Z,25.67
2018-01-11T00:48:09.959Z,27.00
2018-01-11T00:50:38.295Z,25.47
2018-01-11T00:53:06.660Z,25.20
2018-01-11T00:55:35.015Z,27.83
2018-01-11T00:58:03.325Z,28.23
2018-01-11T01:00:31.665Z,31.97
2018-01-11T01:03:00.004Z,26.73
2018-01-11T01:05:28.316Z,25.47
2018-01-11T01:07:57.401Z,34.73
2018-01-11T01:10:25.727Z,32.70
2018-01-11T01:12:54.874Z,33.90
2018-01-11T01:15:23.199Z,27.17
2018-01-11T01:17:51.575Z,26.00
2018-01-11T01:20:19.888Z,28.73
2018-01-11T01:22:48.207Z,29.07
2018-01-11T01:25:16.556Z,27.97
2018-01-11T01:27:44.885Z,28.27
2018-01-11T01:30:13.949Z,28.50
2018-01-11T01:32:42.285Z,30.97
2018-01-11T01:35:10.624Z,26.13
2018-01-11T01:37:38.943Z,25.63
2018-01-11T01:40:07.329Z,26.67
2018-01-11T01:42:35.662Z,27.23
2018-01-11T01:45:03.969Z,29.47
2018-01-11T01:47:32.510Z,28.97
2018-01-11T01:50:00.829Z,28.17
2018-01-11T01:52:29.140Z,27.00
2018-01-11T01:54:57.449Z,28.23
2018-01-11T01:57:25.792Z,29.20
2018-01-11T01:59:54.876Z,26.63
2018-01-11T02:02:23.962Z,28.70
2018-01-11T02:04:52.272Z,28.60
2018-01-11T02:07:21.345Z,27.30
2018-01-11T02:09:49.666Z,28.97
2018-01-11T02:12:18.002Z,27.17
2018-01-11T02:14:46.325Z,28.10
2018-01-11T02:17:14.694Z,26.70
2018-01-11T02:19:43.772Z,28.07
2018-01-11T02:22:12.099Z,27.70
2018-01-11T02:24:40.432Z,28.37
2018-01-11T02:27:08.760Z,31.57
2018-01-11T02:29:37.873Z,30.47
2018-01-11T02:32:06.212Z,29.30
2018-01-11T02:34:34.548Z,31.40
2018-01-11T02:37:02.858Z,28.83
2018-01-11T02:39:31.169Z,29.47
2018-01-11T02:42:00.232Z,29.23
2018-01-11T02:44:28.550Z,29.07
2018-01-11T02:46:57.616Z,28.87
2018-01-11T02:49:25.938Z,29.83
2018-01-11T02:51:55.024Z,30.40
2018-01-11T02:54:24.102Z,30.03
2018-01-11T02:56:52.422Z,28.60
2018-01-11T02:59:20.744Z,29.30
2018-01-11T03:01:49.054Z,29.63
2018-01-11T03:04:17.386Z,29.40
2018-01-11T03:06:45.731Z,28.13
2018-01-11T03:09:14.060Z,27.27
2018-01-11T03:11:42.448Z,27.63
2018-01-11T03:14:10.794Z,29.37
2018-01-11T03:16:39.899Z,26.60
2018-01-11T03:19:08.244Z,31.00
2018-01-11T03:21:36.564Z,29.03
2018-01-11T03:24:04.880Z,30.47
2018-01-11T03:26:33.214Z,30.03
2018-01-11T03:29:02.333Z,29.03
2018-01-11T03:31:30.641Z,27.27
2018-01-11T03:33:58.956Z,28.83
2018-01-11T03:36:27.284Z,29.07
2018-01-11T03:38:55.600Z,28.73
2018-01-11T03:41:23.908Z,28.47
2018-01-11T03:43:52.238Z,27.00
2018-01-11T03:46:20.604Z,28.77
2018-01-11T03:48:48.924Z,31.43
2018-01-11T03:51:17.280Z,32.33
2018-01-11T03:53:45.575Z,28.37
2018-01-11T03:56:13.975Z,27.77
2018-01-11T03:58:42.284Z,28.30
2018-01-11T04:01:10.678Z,32.23
2018-01-11T04:03:39.754Z,28.40
2018-01-11T04:06:08.072Z,29.53
2018-01-11T04:08:37.148Z,32.23
2018-01-11T04:11:05.478Z,30.30
2018-01-11T04:13:33.774Z,31.37
2018-01-11T04:16:02.087Z,32.50
2018-01-11T04:18:30.404Z,29.60
2018-01-11T04:20:58.710Z,29.33
2018-01-11T04:23:27.024Z,28.53
2018-01-11T04:25:55.330Z,29.90
2018-01-11T04:28:24.412Z,29.33
2018-01-11T04:30:52.716Z,29.77
2018-01-11T04:33:21.808Z,28.90
2018-01-11T04:35:50.918Z,31.40
2018-01-11T04:38:20.038Z,33.60
2018-01-11T04:40:48.378Z,30.17
2018-01-11T04:43:16.704Z,29.77
2018-01-11T04:45:45.027Z,30.30
2018-01-11T04:48:13.352Z,30.27
2018-01-11T04:50:41.692Z,28.17
2018-01-11T04:53:10.049Z,28.80
2018-01-11T04:55:38.384Z,27.60
2018-01-11T04:58:07.505Z,30.03
2018-01-11T05:00:41.464Z,29.27
2018-01-11T05:03:09.786Z,30.30
2018-01-11T05:05:38.864Z,27.30
2018-01-11T05:08:07.180Z,30.13
2018-01-11T05:10:35.566Z,28.83
2018-01-11T05:13:03.916Z,32.30
2018-01-11T05:15:32.237Z,29.00
2018-01-11T05:18:00.563Z,31.77
2018-01-11T05:20:28.934Z,30.27
2018-01-11T05:22:57.300Z,29.17
2018-01-11T05:25:25.631Z,28.47
2018-01-11T05:27:53.976Z,30.27
2018-01-11T05:30:22.302Z,30.87
2018-01-11T05:32:51.396Z,30.60
2018-01-11T05:35:20.484Z,30.20
2018-01-11T05:37:48.812Z,31.90
2018-01-11T05:40:17.126Z,32.70
2018-01-11T05:42:45.592Z,30.50
2018-01-11T05:45:13.940Z,31.20
2018-01-11T05:47:43.018Z,30.90
2018-01-11T05:50:12.122Z,29.60
2018-01-11T05:52:41.192Z,30.93
2018-01-11T05:55:09.531Z,31.00
2018-01-11T05:57:37.858Z,29.83
2018-01-11T06:00:06.944Z,30.70
2018-01-11T06:02:35.272Z,28.53
2018-01-11T06:05:04.348Z,27.23
2018-01-11T06:07:32.700Z,30.87
2018-01-11T06:10:01.038Z,26.97
2018-01-11T06:12:30.126Z,28.93
2018-01-11T06:14:58.444Z,27.00
2018-01-11T06:17:26.746Z,28.37
2018-01-11T06:19:55.070Z,27.57
2018-01-11T06:22:24.147Z,27.67
2018-01-11T06:24:53.178Z,28.97
2018-01-11T06:27:22.272Z,29.10
2018-01-11T06:29:51.365Z,28.57
2018-01-11T06:32:19.678Z,29.57
2018-01-11T06:34:48.036Z,28.30
2018-01-11T06:37:17.158Z,30.60
2018-01-11T06:39:45.494Z,30.93
2018-01-11T06:42:13.983Z,32.83
2018-01-11T06:44:42.404Z,34.20
2018-01-11T06:47:11.546Z,33.70
2018-01-11T06:49:39.852Z,34.10
2018-01-11T06:52:08.191Z,32.27
2018-01-11T06:54:36.513Z,31.80
2018-01-11T06:57:04.839Z,32.67
2018-01-11T06:59:33.178Z,31.50
2018-01-11T07:02:01.554Z,32.23
2018-01-11T07:04:30.002Z,31.47
2018-01-11T07:06:58.530Z,31.73
2018-01-11T07:09:26.860Z,31.33
2018-01-11T07:11:55.154Z,33.40
2018-01-11T07:14:23.472Z,34.13
2018-01-11T07:16:51.806Z,33.80
2018-01-11T07:19:20.104Z,33.20
2018-01-11T07:21:48.424Z,31.40
2018-01-11T07:24:16.790Z,33.70
2018-01-11T07:26:45.208Z,32.83
2018-01-11T07:29:13.506Z,30.80
2018-01-11T07:31:42.575Z,31.80
2018-01-11T07:34:10.908Z,31.10
2018-01-11T07:36:39.222Z,30.90
2018-01-11T07:39:07.540Z,28.67
2018-01-11T07:41:36.628Z,31.57
2018-01-11T07:44:05.707Z,33.67
2018-01-11T07:46:34.033Z,31.53
2018-01-11T07:49:02.359Z,29.93
2018-01-11T07:51:30.695Z,31.70
2018-01-11T07:53:59.823Z,29.60
2018-01-11T07:56:28.149Z,28.43
2018-01-11T07:58:56.472Z,31.40
2018-01-11T08:01:24.819Z,32.40
2018-01-11T08:03:53.899Z,30.47
2018-01-11T08:06:22.261Z,31.10
2018-01-11T08:08:50.583Z,30.30
2018-01-11T08:11:18.920Z,30.40
2018-01-11T08:13:47.225Z,31.70
2018-01-11T08:16:15.535Z,34.60
2018-01-11T08:18:44.771Z,34.30
2018-01-11T08:21:13.125Z,34.73
2018-01-11T08:23:42.187Z,34.73
2018-01-11T08:26:10.517Z,34.57
2018-01-11T08:28:38.843Z,36.47
2018-01-11T08:31:07.187Z,33.80
2018-01-11T08:33:35.497Z,32.93
2018-01-11T08:36:03.817Z,33.97
2018-01-11T08:38:32.151Z,36.07
2018-01-11T08:41:00.461Z,36.50
2018-01-11T08:43:28.777Z,33.63
2018-01-11T08:45:57.867Z,31.80
2018-01-11T08:48:26.185Z,33.10
2018-01-11T08:50:54.501Z,34.30
2018-01-11T08:53:22.815Z,32.17
2018-01-11T08:55:51.999Z,32.30
2018-01-11T08:58:20.325Z,32.63
2018-01-11T09:00:48.647Z,32.00
2018-01-11T09:03:16.973Z,30.97
2018-01-11T09:05:46.780Z,31.50
2018-01-11T09:08:15.294Z,31.50
2018-01-11T09:10:43.635Z,32.20
2018-01-11T09:13:11.969Z,31.90
2018-01-11T09:15:40.266Z,31.53
2018-01-11T09:18:08.603Z,31.30
2018-01-11T09:20:38.261Z,31.60
2018-01-11T09:23:07.029Z,32.40
2018-01-11T09:25:35.384Z,30.97
2018-01-11T09:28:04.451Z,31.70
2018-01-11T09:30:32.772Z,31.60
2018-01-11T09:33:01.844Z,32.00
2018-01-11T09:35:30.197Z,33.10
2018-01-11T09:37:58.509Z,32.43
2018-01-11T09:40:26.831Z,33.63
2018-01-11T09:42:55.171Z,33.27
2018-01-11T09:45:23.529Z,34.07
2018-01-11T09:47:51.842Z,33.73
2018-01-11T09:50:20.156Z,32.90
2018-01-11T09:52:48.477Z,31.63
2018-01-11T09:55:16.799Z,32.57
2018-01-11T09:57:45.870Z,37.73
2018-01-11T10:00:14.187Z,32.67
2018-01-11T10:02:43.282Z,35.63
2018-01-11T10:05:13.087Z,32.93
2018-01-11T10:07:41.412Z,37.30
2018-01-11T10:10:09.744Z,34.80
2018-01-11T10:12:38.072Z,31.40
2018-01-11T10:15:06.431Z,33.77
2018-01-11T10:17:34.760Z,32.60
2018-01-11T10:20:03.081Z,35.43
2018-01-11T10:22:31.409Z,32.47
2018-01-11T10:24:59.734Z,31.73
2018-01-11T10:27:28.051Z,33.17
2018-01-11T10:29:56.373Z,33.93
2018-01-11T10:32:24.722Z,34.80
2018-01-11T10:34:53.081Z,32.50
2018-01-11T10:37:22.233Z,33.60
2018-01-11T10:39:50.559Z,33.87
2018-01-11T10:42:19.659Z,33.83
2018-01-11T10:44:48.777Z,33.70
2018-01-11T10:47:17.901Z,32.73
2018-01-11T10:49:46.196Z,33.47
2018-01-11T10:52:14.565Z,33.93
2018-01-11T10:54:42.892Z,34.43
2018-01-11T10:57:11.255Z,34.10
2018-01-11T10:59:39.576Z,32.77
2018-01-11T11:02:14.289Z,32.70
2018-01-11T11:04:43.195Z,32.70
2018-01-11T11:07:13.082Z,35.40
2018-01-11T11:09:41.512Z,35.57
2018-01-11T11:12:09.863Z,35.83
2018-01-11T11:14:38.197Z,34.17
2018-01-11T11:17:06.511Z,34.80
2018-01-11T11:19:34.845Z,33.47
2018-01-11T11:22:03.178Z,33.60
2018-01-11T11:24:31.630Z,33.90
2018-01-11T11:27:00.788Z,32.40
2018-01-11T11:29:30.048Z,32.20
2018-01-11T11:31:59.236Z,33.90
2018-01-11T11:34:27.569Z,32.93
2018-01-11T11:36:55.893Z,35.33
2018-01-11T11:39:24.206Z,35.50
2018-01-11T11:41:52.554Z,33.80
2018-01-11T11:46:54.834Z,33.53
2018-01-11T11:49:23.146Z,31.73
2018-01-11T11:51:51.467Z,32.73
2018-01-11T11:56:54.310Z,33.43
2018-01-11T11:59:22.646Z,33.30
2018-01-11T12:01:51.567Z,35.70
2018-01-11T12:04:20.647Z,34.50
2018-01-11T12:06:48.969Z,34.30
2018-01-11T12:09:17.304Z,34.17
2018-01-11T12:11:45.632Z,36.07
2018-01-11T12:14:13.945Z,36.63
2018-01-11T12:16:42.247Z,36.90
2018-01-11T12:19:10.592Z,33.37
2018-01-11T12:21:38.919Z,34.90
2018-01-11T12:24:07.237Z,34.20
2018-01-11T12:26:35.545Z,33.07
2018-01-11T12:29:03.856Z,35.53
2018-01-11T12:31:32.190Z,36.80
2018-01-11T12:34:00.522Z,35.23
2018-01-11T12:36:28.850Z,33.60
2018-01-11T12:38:57.238Z,33.20
2018-01-11T12:41:25.564Z,32.80
2018-01-11T12:43:53.901Z,33.97
2018-01-11T12:46:22.228Z,34.00
2018-01-11T12:48:50.557Z,33.07
2018-01-11T12:51:18.872Z,36.03
2018-01-11T12:53:47.967Z,34.60
2018-01-11T12:56:16.282Z,34.27
2018-01-11T12:58:44.661Z,35.20
2018-01-11T13:01:13.056Z,34.43
2018-01-11T13:03:41.394Z,36.10
2018-01-11T13:06:09.701Z,35.63
2018-01-11T13:08:38.019Z,35.97
2018-01-11T13:11:07.092Z,36.77
2018-01-11T13:13:35.420Z,36.93
2018-01-11T13:16:03.752Z,38.57
2018-01-11T13:18:32.086Z,39.20
2018-01-11T13:21:00.398Z,38.17
2018-01-11T13:23:28.712Z,39.00
2018-01-11T13:25:57.046Z,37.70
2018-01-11T13:28:25.384Z,37.23
2018-01-11T13:30:54.496Z,38.87
2018-01-11T13:33:22.822Z,39.37
2018-01-11T13:35:51.152Z,38.90
2018-01-11T13:38:20.264Z,37.87
2018-01-11T13:40:48.570Z,37.30
2018-01-11T13:43:16.946Z,35.93
2018-01-11T13:45:45.322Z,35.07
2018-01-11T13:48:13.628Z,38.07
2018-01-11T13:50:41.956Z,34.10
2018-01-11T13:53:10.373Z,37.10
2018-01-11T13:55:38.649Z,37.80
2018-01-11T13:58:06.985Z,39.23
2018-01-11T14:00:35.321Z,38.13
2018-01-11T14:03:04.440Z,36.30
2018-01-11T14:05:32.746Z,35.60
2018-01-11T14:08:01.086Z,34.43
2018-01-11T14:10:29.424Z,36.90
2018-01-11T14:12:57.762Z,36.70
2018-01-11T14:15:26.085Z,39.40
2018-01-11T14:17:54.423Z,45.03
2018-01-11T14:20:22.777Z,42.17
2018-01-11T14:22:51.160Z,39.60
2018-01-11T14:25:19.491Z,33.20
2018-01-11T14:27:47.826Z,33.20
2018-01-11T14:30:16.171Z,32.70
2018-01-11T14:32:44.477Z,32.30
2018-01-11T14:35:13.570Z,29.70
2018-01-11T14:37:42.690Z,28.60
2018-01-11T14:40:11.026Z,28.40
2018-01-11T14:42:39.352Z,27.30
2018-01-11T14:45:07.710Z,30.40
2018-01-11T14:47:36.061Z,27.23
2018-01-11T14:50:04.413Z,27.70
2018-01-11T14:52:32.712Z,26.20
2018-01-11T14:55:01.029Z,29.93
2018-01-11T14:57:29.368Z,34.40
2018-01-11T14:59:57.693Z,27.97
2018-01-11T15:02:26.066Z,36.13
2018-01-11T15:04:54.418Z,27.57
2018-01-11T15:07:22.756Z,26.07
2018-01-11T15:09:51.105Z,29.37
2018-01-11T15:12:19.416Z,28.10
2018-01-11T15:14:47.752Z,29.90
2018-01-11T15:17:16.162Z,34.03
2018-01-11T15:19:44.504Z,47.63
2018-01-11T15:22:12.822Z,31.67
2018-01-11T15:24:41.138Z,28.20
2018-01-11T15:27:10.225Z,30.80
2018-01-11T15:29:38.666Z,35.57
2018-01-11T15:32:06.990Z,32.07
2018-01-11T15:34:35.324Z,31.40
2018-01-11T15:37:03.641Z,31.13
2018-01-11T15:39:32.010Z,35.90
2018-01-11T15:42:00.326Z,31.57
2018-01-11T15:44:28.654Z,32.43
2018-01-11T15:46:56.986Z,32.10
2018-01-11T15:49:25.304Z,32.67
2018-01-11T15:51:53.623Z,33.50
2018-01-11T15:54:21.941Z,33.50
2018-01-11T15:56:51.018Z,35.20
2018-01-11T15:59:19.332Z,33.33
2018-01-11T16:01:47.752Z,34.67
2018-01-11T16:04:16.096Z,33.30
2018-01-11T16:06:45.255Z,35.07
2018-01-11T16:09:13.570Z,34.07
2018-01-11T16:11:42.669Z,44.17
2018-01-11T16:14:11.758Z,44.47
2018-01-11T16:16:40.151Z,48.07
2018-01-11T16:19:08.507Z,45.27
2018-01-11T16:21:36.952Z,49.07
2018-01-11T16:24:05.297Z,46.70
2018-01-11T16:26:33.610Z,40.80
2018-01-11T16:29:01.930Z,39.70
2018-01-11T16:31:30.264Z,35.67
2018-01-11T16:33:58.582Z,35.37
2018-01-11T16:36:26.928Z,35.83
2018-01-11T16:38:55.243Z,35.97
2018-01-11T16:41:23.576Z,35.53
2018-01-11T16:43:52.679Z,35.77
2018-01-11T16:46:22.512Z,34.07
2018-01-11T16:48:50.851Z,40.13
2018-01-11T16:51:19.185Z,31.67
2018-01-11T16:53:47.491Z,36.50
2018-01-11T16:56:15.800Z,41.00
2018-01-11T16:58:44.144Z,32.60
2018-01-11T17:01:12.445Z,35.30
2018-01-11T17:03:40.766Z,36.30
2018-01-11T17:06:09.880Z,36.53
2018-01-11T17:08:38.216Z,34.60
2018-01-11T17:11:06.650Z,34.20
2018-01-11T17:13:34.974Z,40.87
2018-01-11T17:16:03.306Z,32.10
2018-01-11T17:18:31.624Z,33.37
2018-01-11T17:20:59.938Z,35.57
2018-01-11T17:23:28.250Z,30.60
2018-01-11T17:25:57.335Z,34.87
2018-01-11T17:28:26.426Z,31.20
2018-01-11T17:30:54.754Z,31.47
2018-01-11T17:33:23.062Z,32.37
2018-01-11T17:35:51.397Z,34.73
2018-01-11T17:38:19.749Z,32.10
2018-01-11T17:40:48.093Z,32.90
2018-01-11T17:43:16.396Z,37.10
2018-01-11T17:45:44.709Z,33.50
2018-01-11T17:48:13.772Z,31.83
2018-01-11T17:50:42.141Z,33.17
2018-01-11T17:53:10.579Z,32.40
2018-01-11T17:55:39.713Z,31.00
2018-01-11T17:58:08.077Z,33.97
2018-01-11T18:00:36.385Z,31.27
2018-01-11T18:03:04.703Z,32.43
2018-01-11T18:05:33.035Z,29.63
2018-01-11T18:08:01.386Z,30.67
2018-01-11T18:10:30.525Z,33.07
2018-01-11T18:12:58.865Z,34.83
2018-01-11T18:15:27.966Z,32.50
2018-01-11T18:17:57.135Z,33.43
2018-01-11T18:20:25.482Z,32.27
2018-01-11T18:22:54.548Z,31.67
2018-01-11T18:25:22.869Z,37.20
2018-01-11T18:27:51.212Z,32.53
2018-01-11T18:30:20.294Z,33.77
2018-01-11T18:32:48.607Z,34.80
2018-01-11T18:35:16.942Z,33.30
2018-01-11T18:37:45.249Z,37.40
2018-01-11T18:40:13.562Z,34.30
2018-01-11T18:42:41.906Z,36.00
2018-01-11T18:45:11.005Z,35.40
2018-01-11T18:47:39.315Z,35.67
2018-01-11T18:50:08.399Z,35.13
2018-01-11T18:52:37.476Z,36.57
2018-01-11T18:55:05.780Z,34.07
2018-01-11T18:57:34.857Z,34.37
2018-01-11T19:00:03.192Z,36.40
2018-01-11T19:02:31.531Z,36.13
2018-01-11T19:04:59.857Z,35.60
2018-01-11T19:07:28.213Z,34.30
2018-01-11T19:09:57.325Z,36.03
2018-01-11T19:12:25.649Z,35.43
2018-01-11T19:14:53.965Z,34.07
2018-01-11T19:17:23.056Z,37.00
2018-01-11T19:19:51.493Z,35.40
2018-01-11T19:22:19.796Z,35.10
2018-01-11T19:24:48.110Z,39.60
2018-01-11T19:27:16.419Z,32.70
2018-01-11T19:29:44.752Z,32.53
2018-01-11T19:32:13.053Z,33.37
2018-01-11T19:34:41.384Z,33.80
2018-01-11T19:37:09.723Z,36.60
2018-01-11T19:39:38.055Z,30.93
2018-01-11T19:42:06.386Z,32.07
2018-01-11T19:44:34.699Z,32.33
2018-01-11T19:47:03.010Z,32.87
2018-01-11T19:49:31.312Z,32.60
2018-01-11T19:51:59.677Z,31.90
2018-01-11T19:54:28.813Z,33.70
2018-01-11T19:56:57.130Z,33.53
2018-01-11T19:59:25.455Z,31.60
2018-01-11T20:01:53.800Z,32.27
2018-01-11T20:04:22.144Z,30.60
2018-01-11T20:06:50.515Z,34.30
2018-01-11T20:09:18.917Z,31.93
2018-01-11T20:11:47.373Z,32.33
2018-01-11T20:14:15.687Z,32.67
2018-01-11T20:16:44.788Z,31.17
2018-01-11T20:19:13.877Z,32.00
2018-01-11T20:21:42.960Z,32.87
2018-01-11T20:24:11.264Z,34.90
2018-01-11T20:26:40.361Z,33.40
2018-01-11T20:29:09.430Z,35.97
2018-01-11T20:31:37.758Z,34.17
2018-01-11T20:34:06.861Z,33.57
2018-01-11T20:36:35.163Z,36.27
2018-01-11T20:39:03.629Z,34.07
2018-01-11T20:41:31.930Z,36.60
2018-01-11T20:44:00.241Z,36.10
2018-01-11T20:46:28.565Z,37.10
2018-01-11T20:48:57.631Z,38.10
2018-01-11T20:51:25.921Z,38.97
2018-01-11T20:53:54.244Z,37.67
2018-01-11T20:56:22.543Z,35.53
2018-01-11T20:58:50.845Z,37.30
2018-01-11T21:01:19.155Z,36.47
2018-01-11T21:03:48.219Z,36.80
2018-01-11T21:06:17.297Z,37.17
2018-01-11T21:08:45.618Z,36.07
2018-01-11T21:11:13.978Z,35.60
2018-01-11T21:13:42.299Z,37.60
2018-01-11T21:16:11.424Z,34.47
2018-01-11T21:18:39.711Z,37.53
2018-01-11T21:21:08.018Z,37.23
2018-01-11T21:23:36.334Z,37.40
2018-01-11T21:26:04.639Z,36.23
2018-01-11T21:28:33.732Z,35.40
2018-01-11T21:31:02.786Z,36.73
2018-01-11T21:33:31.084Z,33.20
2018-01-11T21:35:59.393Z,34.17
2018-01-11T21:38:28.469Z,35.67
2018-01-11T21:40:56.760Z,34.33
2018-01-11T21:43:25.073Z,34.67
2018-01-11T21:45:53.367Z,33.80
2018-01-11T21:48:21.693Z,34.20
2018-01-11T21:50:50.001Z,35.00
2018-01-11T21:53:19.079Z,34.60
2018-01-11T21:55:47.377Z,36.47
2018-01-11T21:58:16.429Z,35.10
2018-01-11T22:00:44.745Z,35.53
2018-01-11T22:03:13.057Z,39.50
2018-01-11T22:05:41.371Z,33.97
2018-01-11T22:08:09.677Z,39.90
2018-01-11T22:10:37.993Z,36.77
2018-01-11T22:13:07.045Z,34.53
2018-01-11T22:15:35.437Z,37.43
2018-01-11T22:18:03.737Z,36.20
2018-01-11T22:20:32.822Z,34.40
2018-01-11T22:23:01.257Z,34.97
2018-01-11T22:25:30.427Z,36.40
2018-01-11T22:27:58.753Z,36.40
2018-01-11T22:30:27.127Z,35.00
2018-01-11T22:32:55.437Z,33.67
2018-01-11T22:35:23.740Z,34.13
2018-01-11T22:37:52.056Z,35.23
2018-01-11T22:40:20.403Z,32.07
2018-01-11T22:42:49.474Z,36.50
2018-01-11T22:45:17.780Z,33.30
2018-01-11T22:47:46.116Z,34.03
2018-01-11T22:50:14.431Z,32.80
2018-01-11T22:52:42.742Z,34.43
2018-01-11T22:55:11.041Z,31.53
2018-01-11T22:57:39.398Z,33.43
2018-01-11T23:00:09.378Z,32.03
2018-01-11T23:02:37.671Z,32.90
2018-01-11T23:05:05.976Z,33.40
2018-01-11T23:07:35.059Z,33.53
2018-01-11T23:10:03.452Z,30.80
2018-01-11T23:12:32.533Z,34.70
2018-01-11T23:15:00.835Z,32.13
2018-01-11T23:17:29.136Z,32.37
2018-01-11T23:19:58.216Z,32.70
2018-01-11T23:22:26.532Z,34.57
2018-01-11T23:24:54.920Z,33.40
2018-01-11T23:27:23.247Z,33.67
2018-01-11T23:29:51.563Z,33.77
2018-01-11T23:32:19.909Z,33.00
2018-01-11T23:34:48.208Z,33.53
2018-01-11T23:37:17.188Z,31.73
2018-01-11T23:39:45.487Z,30.47
2018-01-11T23:42:13.798Z,31.47
2018-01-11T23:44:42.864Z,31.03
2018-01-11T23:47:11.942Z,31.47
2018-01-11T23:49:40.271Z,31.60
2018-01-11T23:52:09.376Z,32.90
2018-01-11T23:54:38.442Z,30.40
2018-01-11T23:57:08.252Z,30.33
2018-01-11T23:59:36.577Z,32.63
